Fort Abbas Weather



Fort Abbas's Current Weather

Temprature 32.77o clear sky

clear sky

Rain: 0 %

Min Temprature32.77o
Max Temprature32.77o
Humidity38
Wind Speed5.93 m/h
Sun Rise05:58:47
Sun Set18:01:17
Current Time: 26-Sep-2022 08:50:18
Lat/Lon: 29.1925, 72.8536




Fort Abbas's Geo Location



Fort Abbas's Weather Forecast

Time Overall Temp Min Temp Max Temp Humidity Wind Speed Rain
26-Sep-2022 (Mon)
11:00:00 clear sky 32.700 32.700 35.390 37 5.51 m/h 0 %
14:00:00 clear sky 35.680 35.680 37.850 29 5.42 m/h 0 %
17:00:00 clear sky 37.040 37.040 37.040 24 5.96 m/h 0 %
20:00:00 clear sky 33.600 33.600 33.600 33 4.38 m/h 0 %
23:00:00 clear sky 31.610 31.610 31.610 38 2.6 m/h 0 %
27-Sep-2022 (Tue)
02:00:00 clear sky 30.420 30.420 30.420 40 2.93 m/h 0 %
05:00:00 clear sky 29.400 29.400 29.400 41 3.17 m/h 0 %
08:00:00 clear sky 31.920 31.920 31.920 30 4.98 m/h 0 %
11:00:00 clear sky 36.310 36.310 36.310 24 5.53 m/h 0 %
14:00:00 clear sky 38.210 38.210 38.210 22 5.37 m/h 0 %
17:00:00 few clouds 37.440 37.440 37.440 22 5.78 m/h 0 %
20:00:00 scattered clouds 34.660 34.660 34.660 26 4.95 m/h 0 %
23:00:00 few clouds 32.720 32.720 32.720 29 4.95 m/h 0 %
28-Sep-2022 (Wed)
02:00:00 clear sky 30.910 30.910 30.910 28 4.56 m/h 0 %
05:00:00 clear sky 29.190 29.190 29.190 27 4.08 m/h 0 %
08:00:00 clear sky 31.390 31.390 31.390 26 6.42 m/h 0 %
11:00:00 clear sky 36.090 36.090 36.090 22 5.79 m/h 0 %
14:00:00 clear sky 37.900 37.900 37.900 19 5.58 m/h 0 %
17:00:00 clear sky 37.090 37.090 37.090 19 4.89 m/h 0 %
20:00:00 clear sky 33.650 33.650 33.650 23 3.93 m/h 0 %
23:00:00 clear sky 31.790 31.790 31.790 26 4.14 m/h 0 %
29-Sep-2022 (Thu)
02:00:00 clear sky 29.930 29.930 29.930 29 4.23 m/h 0 %
05:00:00 clear sky 28.470 28.470 28.470 29 3.92 m/h 0 %
08:00:00 clear sky 30.620 30.620 30.620 33 5.27 m/h 0 %
11:00:00 clear sky 35.430 35.430 35.430 26 5.33 m/h 0 %
14:00:00 clear sky 37.460 37.460 37.460 21 5.24 m/h 0 %
17:00:00 clear sky 36.690 36.690 36.690 18 4.22 m/h 0 %
20:00:00 clear sky 33.200 33.200 33.200 23 3.67 m/h 0 %
23:00:00 clear sky 31.540 31.540 31.540 26 3.92 m/h 0 %
30-Sep-2022 (Fri)
02:00:00 clear sky 29.720 29.720 29.720 27 4.08 m/h 0 %
05:00:00 clear sky 28.290 28.290 28.290 31 3.78 m/h 0 %
08:00:00 clear sky 31.000 31.000 31.000 29 4.83 m/h 0 %
11:00:00 clear sky 35.630 35.630 35.630 27 5.78 m/h 0 %
14:00:00 clear sky 37.750 37.750 37.750 22 5.74 m/h 0 %
17:00:00 clear sky 36.900 36.900 36.900 21 4.86 m/h 0 %
20:00:00 clear sky 33.470 33.470 33.470 26 3.9 m/h 0 %
23:00:00 clear sky 31.950 31.950 31.950 34 4.3 m/h 0 %
01-Oct-2022 (Sat)
02:00:00 clear sky 30.050 30.050 30.050 34 4.13 m/h 0 %
05:00:00 clear sky 28.510 28.510 28.510 31 4.05 m/h 0 %
08:00:00 clear sky 30.800 30.800 30.800 31 6.54 m/h 0 %

Famous Cities (61)